• Join FlightAware (Why Join?)
  • Login
  • US Flag 
09:27PM EDT


 

Airport Tracker/Info


-or-


 

Live Flight TrackerFlight Track Log ✈ N36LA ✈ 06-May-2012 ✈ KIXA - 9G3

Flight Track Log - Related Links

Times and Time Zones

All times are in EDT time to prevent confusion due to time zone crossing. See the N36LA flight status page for this flight to view local times or setup timezone preferences in your user account.

Time Position Orientation Groundspeed Altitude Reporting Facility
EDT Latitude Longitude Course Direction KTS MPH feet Rate Location/Type
05:13PM 36.4108 -77.7031 344° North 159 183 3,100  Level Washington Center
05:17PM 36.5456 -77.7508 351° North 101 116 6,500 600 Climbing Washington Center
05:19PM 36.5747 -77.7567 350° North 101 116 7,000 480 Climbing Washington Center
05:20PM 36.6017 -77.7625 359° North 101 116 7,500 480 Climbing Washington Center
05:20PM 36.6308 -77.7633 345° North 101 116 8,000 240 Climbing Washington Center
05:22PM 36.6642 -77.7747 356° North 106 122 8,000  Level Washington Center
05:23PM 36.7036 -77.7783 347° North 119 137 8,000  Level Washington Center
05:24PM 36.7431 -77.7900 352° North 131 151 8,000  Level Washington Center
05:27PM 36.8553 -77.8086 350° North 136 157 8,000  Level Washington Center
05:27PM 36.8947 -77.8175 352° North 136 157 8,000  Level Washington Center
05:29PM 36.9322 -77.8239 352° North 141 162 8,000  Level Washington Center
05:31PM 37.0486 -77.8456 350° North 141 162 8,000  Level Washington Center
05:32PM 37.0881 -77.8544 352° North 141 162 8,000  Level Washington Center
05:34PM 37.1236 -77.8606 349° North 141 162 8,000  Level Washington Center
05:35PM 37.1608 -77.8697 353° North 141 162 8,000  Level Washington Center
05:36PM 37.2003 -77.8758 352° North 141 162 8,000  Level Washington Center
05:37PM 37.2358 -77.8822 350° North 141 162 8,000  Level Washington Center
05:39PM 37.3167 -77.9000 360° North 141 162 8,000  Level Potomac TRACON
05:40PM 37.3500 -77.9000 338° Northwest 133 153 8,000  Level Potomac TRACON
05:41PM 37.3833 -77.9167 360° North 119 137 8,000  Level Potomac TRACON
05:41PM 37.4167 -77.9167 360° North 136 157 8,000  Level Potomac TRACON
05:43PM 37.4500 -77.9167 338° Northwest 134 154 8,000  Level Potomac TRACON
05:44PM 37.4833 -77.9333 360° North 140 161 8,000  Level Potomac TRACON
05:44PM 37.5333 -77.9333 338° Northwest 139 160 8,000  Level Potomac TRACON
05:45PM 37.5667 -77.9500 360° North 136 157 8,000  Level Potomac TRACON
05:46PM 37.6000 -77.9500 338° Northwest 133 153 8,000  Level Potomac TRACON
05:47PM 37.6333 -77.9667 360° North 141 162 8,000  Level Potomac TRACON
05:48PM 37.6667 -77.9667 360° North 134 154 8,000  Level Potomac TRACON
05:49PM 37.7167 -77.9667 338° Northwest 131 151 8,000  Level Potomac TRACON
05:50PM 37.7500 -77.9833 360° North 131 151 8,000  Level Potomac TRACON
05:51PM 37.7833 -77.9833 338° Northwest 131 151 8,000  Level Potomac TRACON
05:52PM 37.8167 -78.0000 360° North 136 157 8,000  Level Potomac TRACON
05:53PM 37.8500 -78.0000 345° North 138 159 8,000  Level Potomac TRACON
05:54PM 37.9000 -78.0167 360° North 144 166 8,000  Level Potomac TRACON
05:55PM 37.9333 -78.0167 338° Northwest 139 160 8,000  Level Potomac TRACON
05:56PM 37.9667 -78.0333 360° North 136 157 8,000  Level Potomac TRACON
05:57PM 38.0000 -78.0333 345° North 139 160 8,000  Level Potomac TRACON
05:58PM 38.0500 -78.0500 360° North 140 161 8,000  Level Potomac TRACON
05:59PM 38.0833 -78.0500 360° North 136 157 8,000  Level Potomac TRACON
06:00PM 38.1167 -78.0500 345° North 141 162 8,000  Level Potomac TRACON
06:01PM 38.1667 -78.0667 360° North 138 159 8,000  Level Potomac TRACON
06:02PM 38.2000 -78.0667 339° North 133 153 8,000  Level Potomac TRACON
06:03PM 38.2333 -78.0833 360° North 135 155 8,000  Level Potomac TRACON
06:04PM 38.2667 -78.0833 339° North 131 151 8,000  Level Potomac TRACON
06:05PM 38.3000 -78.1000 360° North 132 152 8,000  Level Potomac TRACON
06:06PM 38.3500 -78.1000 339° North 133 153 8,000  Level Potomac TRACON
06:07PM 38.3833 -78.1167 360° North 130 150 8,000  Level Potomac TRACON
06:08PM 38.4167 -78.1167 339° North 138 159 8,000  Level Potomac TRACON
06:09PM 38.4500 -78.1333 360° North 139 160 8,000  Level Potomac TRACON
06:10PM 38.5000 -78.1333 360° North 135 155 8,000 -180 Level Potomac TRACON
06:11PM 38.5333 -78.1333 339° North 145 167 7,700 -360 Descending Potomac TRACON
06:12PM 38.5667 -78.1500 360° North 152 175 7,300 -360 Descending Potomac TRACON
06:13PM 38.6167 -78.1500 339° North 152 175 7,000 -180 Descending Potomac TRACON
06:14PM 38.6500 -78.1667 360° North 147 169 7,000  Level Potomac TRACON
06:15PM 38.7000 -78.1667 360° North 144 166 7,000  Level Potomac TRACON
06:16PM 38.7333 -78.1667 360° North 137 158 7,000  Level Potomac TRACON
06:17PM 38.7667 -78.1667 360° North 138 159 7,000  Level Potomac TRACON
06:18PM 38.8000 -78.1667 345° North 142 163 7,000  Level Potomac TRACON
06:19PM 38.8500 -78.1833 360° North 141 162 7,000  Level Potomac TRACON
06:20PM 38.8833 -78.1833 360° North 143 165 7,000  Level Potomac TRACON
06:21PM 38.9333 -78.1833 360° North 146 168 7,000  Level Potomac TRACON
06:22PM 38.9667 -78.1833 360° North 139 160 7,000  Level Potomac TRACON
06:23PM 39.0000 -78.1833 360° North 142 163 7,000  Level Potomac TRACON
06:24PM 39.0500 -78.1833 339° North 141 162 7,000  Level Potomac TRACON
06:25PM 39.0833 -78.2000 360° North 138 159 7,000  Level Potomac TRACON
06:27PM 39.1333 -78.2000 North 138 159 7,000  Level Potomac TRACON
06:27PM 39.1500 -78.1986 358° North 151 174 7,000  Level Washington Center
06:28PM 39.1875 -78.2000 356° North 151 174 7,000  Level Washington Center
06:29PM 39.2269 -78.2039 358° North 140 161 7,000  Level Washington Center
06:30PM 39.2644 -78.2053 355° North 140 161 7,000  Level Washington Center
06:31PM 39.3039 -78.2094 355° North 140 161 7,000  Level Washington Center
06:32PM 39.3433 -78.2136 356° North 140 161 7,000  Level Washington Center
06:33PM 39.3831 -78.2175 358° North 140 161 7,000  Level Washington Center
06:34PM 39.4206 -78.2189 355° North 140 161 7,000  Level Washington Center
06:35PM 39.4600 -78.2231 343° North 140 161 7,000  Level Washington Center
06:36PM 39.4972 -78.2378 345° North 140 161 7,000  Level Washington Center
06:39PM 39.5892 -78.2692 319° Northwest 141 162 7,000  Level Cleveland Center
06:40PM 39.6169 -78.3006 323° Northwest 144 166 7,000  Level Cleveland Center
06:41PM 39.6489 -78.3319 323° Northwest 139 160 7,000  Level Cleveland Center
06:42PM 39.6808 -78.3631 318° Northwest 139 160 7,000  Level Cleveland Center
06:43PM 39.7128 -78.4000 317° Northwest 138 159 7,000  Level Cleveland Center
06:44PM 39.7383 -78.4314 323° Northwest 136 157 7,000  Level Cleveland Center
06:45PM 39.7681 -78.4603 316° Northwest 136 157 7,000  Level Cleveland Center
06:46PM 39.7978 -78.4972 321° Northwest 138 159 7,000  Level Cleveland Center
06:47PM 39.8278 -78.5286 345° North 139 160 7,000 180 Level Cleveland Center
06:49PM 39.8969 -78.5536 16° North 133 153 7,700 300 Climbing Cleveland Center
06:50PM 39.9281 -78.5419 358° North 127 146 8,000 240 Climbing Cleveland Center
06:51PM 39.9633 -78.5433 North 122 140 8,200 240 Climbing Cleveland Center
06:52PM 39.9967 -78.5425 North 122 140 8,500 240 Climbing Cleveland Center
06:53PM 40.0322 -78.5414 358° North 122 140 8,800 240 Climbing Cleveland Center
06:54PM 40.0656 -78.5431 North 122 140 9,000 60 Climbing Cleveland Center
06:55PM 40.1031 -78.5419 North 122 140 9,000  Level Cleveland Center
06:56PM 40.1447 -78.5406 North 127 146 9,000  Level Cleveland Center
06:57PM 40.1844 -78.5394 North 133 153 9,000  Level Cleveland Center
06:58PM 40.2156 -78.5386 North 139 160 9,000  Level Cleveland Center
06:59PM 40.2636 -78.5369 358° North 139 160 9,000  Level Cleveland Center
07:00PM 40.3031 -78.5386 North 139 160 9,000  Level Cleveland Center
07:01PM 40.3447 -78.5372 North 139 160 9,000  Level Cleveland Center
07:02PM 40.3844 -78.5361 North 139 160 9,000  Level Cleveland Center
07:03PM 40.4239 -78.5347 North 144 166 9,000  Level Cleveland Center
07:04PM 40.4636 -78.5336 358° North 144 166 9,000  Level Cleveland Center
07:05PM 40.5033 -78.5350 North 144 166 9,000  Level Cleveland Center
07:06PM 40.5492 -78.5308 North 144 166 9,000  Level Cleveland Center
07:07PM 40.5886 -78.5297 358° North 144 166 9,000  Level Cleveland Center
07:08PM 40.6283 -78.5314 North 144 166 9,000  Level Cleveland Center
07:09PM 40.6594 -78.5303 North 144 166 9,000  Level Cleveland Center
07:10PM 40.7053 -78.5289 North 144 166 9,000  Level Cleveland Center
07:11PM 40.7469 -78.5275 358° North 144 166 9,000  Level Cleveland Center
07:12PM 40.7889 -78.5292 North 144 166 9,000  Level Cleveland Center
07:13PM 40.8306 -78.5278 North 144 166 9,000  Level Cleveland Center
07:14PM 40.8700 -78.5264 358° North 144 166 9,000  Level Cleveland Center
07:15PM 40.9117 -78.5281 North 144 166 9,000  Level Cleveland Center
07:16PM 40.9514 -78.5267 North 144 166 9,000  Level Cleveland Center
07:17PM 40.9931 -78.5253 North 144 166 9,000  Level Cleveland Center
07:18PM 41.0347 -78.5242 North 144 166 9,000  Level Cleveland Center
07:19PM 41.0783 -78.5228 North 144 166 9,000  Level Cleveland Center
07:20PM 41.1200 -78.5214 359° North 144 166 9,000  Level Cleveland Center
07:21PM 41.1619 -78.5228 North 144 166 9,000  Level Cleveland Center
07:22PM 41.2078 -78.5214 North 144 166 9,000  Level Cleveland Center
07:23PM 41.2431 -78.5203 359° North 151 174 9,000  Level Cleveland Center
07:24PM 41.2953 -78.5214 North 156 180 9,000  Level Cleveland Center
07:25PM 41.3369 -78.5172 North 156 180 9,000  Level Cleveland Center
07:28PM 41.4578 -78.5133 360° North 139 160 9,000  Level Cleveland Center
07:34PM 41.7078 -78.5111 North 145 167 9,000  Level Cleveland Center
07:39PM 41.9161 -78.5042 North 145 167 9,100  Climbing Cleveland Center
07:40PM 41.9578 -78.5031 359° North 145 167 9,100  Level Cleveland Center
07:41PM 41.9994 -78.5044 359° North 145 167 9,100  Level Cleveland Center
07:42PM 42.0414 -78.5058 North 145 167 9,100  Level Cleveland Center
07:43PM 42.0831 -78.5044 North 145 167 9,100  Level Cleveland Center
07:44PM 42.1247 -78.5031 North 145 167 9,100  Level Cleveland Center
07:45PM 42.1642 -78.5017 North 145 167 9,100  Level Cleveland Center
07:46PM 42.2122 -78.5003 North 152 175 9,100 -60 Level Cleveland Center
07:47PM 42.2558 -78.4989 North 152 175 9,000 -180 Descending Cleveland Center
07:48PM 42.2914 -78.4975 North 157 181 8,800 -360 Descending Cleveland Center
07:49PM 42.3475 -78.4958 North 157 181 8,300 -480 Descending Cleveland Center
07:50PM 42.3933 -78.4942 359° North 162 186 7,900 -420 Descending Cleveland Center
07:51PM 42.4414 -78.4956 North 162 186 7,500 -420 Descending Cleveland Center
07:52PM 42.4872 -78.4911 359° North 162 186 7,100 -360 Descending Cleveland Center
07:53PM 42.5289 -78.4925 North 162 186 6,800 -360 Descending Cleveland Center
07:54PM 42.5747 -78.4911 North 157 181 6,400 -420 Descending Cleveland Center
07:55PM 42.6183 -78.4897 North 157 181 6,000 -480 Descending Cleveland Center
07:57PM 42.7333 -78.4833 360° North 169 194 5,000 -480 Descending Buffalo TRACON
07:58PM 42.7833 -78.4833 360° North 167 192 4,500 -480 Descending Buffalo TRACON
07:59PM 42.8167 -78.4833 360° North 165 190 4,100 -420 Descending Buffalo TRACON
08:00PM 42.8667 -78.4833 360° North 165 190 3,700 -360 Descending Buffalo TRACON
08:01PM 42.9167 -78.4833 360° North 165 190 3,500 -480 Descending Buffalo TRACON
08:02PM 42.9500 -78.4833 340° North 142 163 2,900 -720 Descending Buffalo TRACON
08:03PM 42.9833 -78.5000 360° North 116 133 2,100 -720 Descending Buffalo TRACON
08:04PM 43.0167 -78.5000 71° East 106 122 1,500 -600 Descending Buffalo TRACON
08:12PM 43.1177 -78.0876 71° East  Level Estimated